createdAt,value
2022-08-01T00:00:54.531Z,22.50
2022-08-01T00:03:22.558Z,22.50
2022-08-01T00:05:50.579Z,22.40
2022-08-01T00:08:18.585Z,22.40
2022-08-01T00:10:46.603Z,22.50
2022-08-01T00:13:15.953Z,22.50
2022-08-01T00:15:51.775Z,22.50
2022-08-01T00:18:22.527Z,22.50
2022-08-01T00:20:50.601Z,22.60
2022-08-01T00:23:18.615Z,22.60
2022-08-01T00:25:46.709Z,22.60
2022-08-01T00:28:17.279Z,22.60
2022-08-01T00:30:45.287Z,22.50
2022-08-01T00:33:13.279Z,22.50
2022-08-01T00:35:41.293Z,22.40
2022-08-01T00:38:09.285Z,22.30
2022-08-01T00:40:37.274Z,22.30
2022-08-01T00:43:05.343Z,22.20
2022-08-01T00:45:34.711Z,22.10
2022-08-01T00:48:02.721Z,22.00
2022-08-01T00:50:30.741Z,22.00
2022-08-01T00:52:59.930Z,22.00
2022-08-01T00:55:28.717Z,21.90
2022-08-01T00:58:04.918Z,21.90
2022-08-01T01:00:53.271Z,21.70
2022-08-01T01:03:55.915Z,21.60
2022-08-01T01:06:16.978Z,21.60
2022-08-01T01:08:47.927Z,21.50
2022-08-01T01:11:20.077Z,21.50
2022-08-01T01:13:52.238Z,21.50
2022-08-01T01:16:22.845Z,21.40
2022-08-01T01:18:53.109Z,21.40
2022-08-01T01:21:35.075Z,21.40
2022-08-01T01:24:09.973Z,21.40
2022-08-01T01:26:42.086Z,21.40
2022-08-01T01:29:15.526Z,21.40
2022-08-01T01:31:45.500Z,21.30
2022-08-01T01:34:14.724Z,21.30
2022-08-01T01:36:43.952Z,21.20
2022-08-01T01:39:12.389Z,21.20
2022-08-01T01:41:40.850Z,21.10
2022-08-01T01:44:10.270Z,21.10
2022-08-01T01:46:39.720Z,21.20
2022-08-01T01:49:11.190Z,21.00
2022-08-01T01:51:39.978Z,20.90
2022-08-01T01:54:09.261Z,20.90
2022-08-01T01:56:49.492Z,20.80
2022-08-01T01:59:19.446Z,20.80
2022-08-01T02:02:04.997Z,20.70
2022-08-01T02:04:35.133Z,20.60
2022-08-01T02:07:03.732Z,20.60
2022-08-01T02:09:33.015Z,20.50
2022-08-01T02:12:07.995Z,20.50
2022-08-01T02:14:37.171Z,20.40
2022-08-01T02:17:06.747Z,20.30
2022-08-01T02:19:38.407Z,20.20
2022-08-01T02:22:08.365Z,20.30
2022-08-01T02:24:38.924Z,20.20
2022-08-01T02:27:08.988Z,20.20
2022-08-01T02:29:39.995Z,20.10
2022-08-01T02:32:10.757Z,20.00
2022-08-01T02:34:38.816Z,19.90
2022-08-01T02:37:07.684Z,19.90
2022-08-01T02:39:38.112Z,19.90
2022-08-01T02:42:07.712Z,19.80
2022-08-01T02:44:37.852Z,19.80
2022-08-01T02:47:05.958Z,19.80
2022-08-01T02:49:35.999Z,19.80
2022-08-01T02:52:06.412Z,19.80
2022-08-01T02:54:35.127Z,19.90
2022-08-01T02:57:04.968Z,19.90
2022-08-01T02:59:36.082Z,19.90
2022-08-01T03:02:07.088Z,19.90
2022-08-01T03:04:39.630Z,19.90
2022-08-01T03:07:10.030Z,19.90
2022-08-01T03:09:39.768Z,19.90
2022-08-01T03:12:10.312Z,19.90
2022-08-01T03:14:38.887Z,20.00
2022-08-01T03:17:07.990Z,20.10
2022-08-01T03:19:36.507Z,20.10
2022-08-01T03:22:07.592Z,20.20
2022-08-01T03:24:36.943Z,20.10
2022-08-01T03:27:05.878Z,20.10
2022-08-01T03:29:34.900Z,20.10
2022-08-01T03:32:03.785Z,20.00
2022-08-01T03:34:32.036Z,20.10
2022-08-01T03:37:03.918Z,20.10
2022-08-01T03:39:39.210Z,20.00
2022-08-01T03:42:09.926Z,20.00
2022-08-01T03:44:40.288Z,19.90
2022-08-01T03:47:09.605Z,19.90
2022-08-01T03:49:40.011Z,19.90
2022-08-01T03:52:09.340Z,19.80
2022-08-01T07:59:26.356Z,37.40
2022-08-01T08:01:54.517Z,37.60
2022-08-01T08:04:22.702Z,38.20
2022-08-01T08:06:50.742Z,38.00
2022-08-01T08:09:19.242Z,38.50
2022-08-01T08:11:48.320Z,39.00
2022-08-01T08:14:16.707Z,39.50
2022-08-01T08:16:46.434Z,39.70
2022-08-01T08:19:14.776Z,39.90
2022-08-01T08:21:42.924Z,39.50
2022-08-01T08:24:26.538Z,39.40
2022-08-01T08:26:55.757Z,39.70
2022-08-01T08:29:24.020Z,40.10
2022-08-01T08:31:53.966Z,40.50
2022-08-01T08:34:22.266Z,40.80
2022-08-01T08:36:50.317Z,40.90
2022-08-01T08:39:19.854Z,41.00
2022-08-01T08:41:49.164Z,40.80
2022-08-01T08:44:18.134Z,41.10
2022-08-01T08:46:47.669Z,41.50
2022-08-01T08:49:19.013Z,41.60
2022-08-01T08:51:49.318Z,41.80
2022-08-01T08:54:17.630Z,42.00
2022-08-01T08:56:46.306Z,42.20
2022-08-01T08:59:15.320Z,42.60
2022-08-01T09:01:43.315Z,42.50
2022-08-01T09:04:12.025Z,42.70
2022-08-01T09:06:41.941Z,42.70
2022-08-01T09:09:10.627Z,42.80
2022-08-01T09:11:38.852Z,42.90
2022-08-01T09:14:08.055Z,42.80
2022-08-01T09:16:36.796Z,42.40
2022-08-01T09:19:15.885Z,42.50
2022-08-01T09:21:59.280Z,42.70
2022-08-01T09:24:30.620Z,42.60
2022-08-01T09:26:59.630Z,42.60
2022-08-01T09:29:37.599Z,42.50
2022-08-01T09:32:08.012Z,42.40
2022-08-01T09:34:36.414Z,42.40
2022-08-01T09:37:07.757Z,42.60
2022-08-01T09:39:38.538Z,42.50
2022-08-01T09:42:21.072Z,42.70
2022-08-01T09:44:57.470Z,43.00
2022-08-01T09:47:38.826Z,42.90
2022-08-01T09:50:11.079Z,42.80
2022-08-01T09:52:41.177Z,42.70
2022-08-01T09:55:09.762Z,43.20
2022-08-01T09:57:37.784Z,43.30
2022-08-01T10:00:06.767Z,43.60
2022-08-01T10:02:35.434Z,43.50
2022-08-01T10:05:08.232Z,43.30
2022-08-01T10:07:42.982Z,43.10
2022-08-01T10:10:14.878Z,43.30
2022-08-01T10:12:45.510Z,43.10
2022-08-01T10:15:16.616Z,43.00
2022-08-01T10:17:50.320Z,43.30
2022-08-01T10:20:29.032Z,42.90
2022-08-01T10:23:02.191Z,43.20
2022-08-01T10:25:42.208Z,42.70
2022-08-01T10:28:18.167Z,42.90
2022-08-01T10:30:49.747Z,43.10
2022-08-01T10:33:51.935Z,43.10
2022-08-01T10:36:08.507Z,43.00
2022-08-01T10:38:37.151Z,43.00
2022-08-01T10:41:08.641Z,42.90
2022-08-01T10:43:37.141Z,42.90
2022-08-01T10:46:05.627Z,42.90
2022-08-01T10:48:40.822Z,42.90
2022-08-01T10:51:18.363Z,43.10
2022-08-01T10:53:50.307Z,42.90
2022-08-01T10:56:26.888Z,43.20
2022-08-01T10:59:06.209Z,43.20
2022-08-01T11:01:37.597Z,43.50
2022-08-01T11:04:11.455Z,43.60
2022-08-01T11:06:44.770Z,43.60
2022-08-01T11:09:39.906Z,43.40
2022-08-01T11:12:13.258Z,43.30
2022-08-01T11:15:02.543Z,43.20
2022-08-01T11:17:37.746Z,43.00
2022-08-01T11:20:10.501Z,42.70
2022-08-01T11:22:57.135Z,42.50
2022-08-01T11:26:03.516Z,42.40
2022-08-01T11:28:30.137Z,42.30
2022-08-01T11:31:18.122Z,42.20
2022-08-01T11:33:50.446Z,42.00
2022-08-01T11:36:32.203Z,42.20
2022-08-01T11:39:14.209Z,42.00
2022-08-01T11:41:44.909Z,42.00
2022-08-01T11:44:15.533Z,42.00
2022-08-01T11:46:51.125Z,42.00
2022-08-01T11:49:29.848Z,42.00
2022-08-01T11:51:59.838Z,41.80
2022-08-01T11:54:35.570Z,41.80
2022-08-01T11:57:05.653Z,41.90
2022-08-01T11:59:41.392Z,42.10
2022-08-01T12:02:30.545Z,42.10
2022-08-01T12:04:59.352Z,42.40
2022-08-01T12:07:28.933Z,42.30
2022-08-01T12:10:01.621Z,42.20
2022-08-01T12:12:30.378Z,42.20
2022-08-01T12:15:00.396Z,42.10
2022-08-01T12:17:35.583Z,42.00
2022-08-01T12:20:04.239Z,42.00
2022-08-01T12:22:32.260Z,42.00
2022-08-01T12:25:07.332Z,42.00
2022-08-01T12:27:35.597Z,41.90
2022-08-01T12:30:06.723Z,41.80
2022-08-01T12:32:36.810Z,41.70
2022-08-01T12:35:05.709Z,41.60
2022-08-01T12:37:34.262Z,41.50
2022-08-01T12:40:02.290Z,41.40
2022-08-01T12:42:30.403Z,41.50
2022-08-01T12:44:58.618Z,41.60
2022-08-01T12:47:28.049Z,41.80
2022-08-01T12:49:56.097Z,41.80
2022-08-01T12:52:26.631Z,41.90
2022-08-01T12:55:19.440Z,42.00
2022-08-01T12:57:50.964Z,42.20
2022-08-01T13:00:21.039Z,42.30
2022-08-01T13:02:50.984Z,42.30
2022-08-01T13:05:19.264Z,42.40
2022-08-01T13:07:48.721Z,42.40
2022-08-01T13:10:25.818Z,42.50
2022-08-01T13:12:55.022Z,42.50
2022-08-01T13:15:24.522Z,42.60
2022-08-01T16:27:51.353Z,33.30
2022-08-01T16:30:19.377Z,33.40
2022-08-01T16:32:51.753Z,33.50
2022-08-01T16:35:21.712Z,33.50
2022-08-01T16:37:52.551Z,33.50
2022-08-01T16:40:20.558Z,33.50
2022-08-01T16:42:50.998Z,33.50
2022-08-01T16:45:21.271Z,33.40
2022-08-01T16:47:49.513Z,33.40
2022-08-01T16:50:17.583Z,33.30
2022-08-01T16:52:46.322Z,33.20
2022-08-01T16:55:14.329Z,32.90
2022-08-01T16:57:42.722Z,32.70
2022-08-01T17:00:14.837Z,32.50
2022-08-01T17:02:49.541Z,32.30
2022-08-01T17:05:17.653Z,32.10
2022-08-01T17:07:45.639Z,31.80
2022-08-01T17:10:14.233Z,31.50
2022-08-01T17:12:42.263Z,31.40
2022-08-01T17:15:10.673Z,31.40
2022-08-01T17:17:40.098Z,31.30
2022-08-01T17:20:09.293Z,31.20
2022-08-01T17:22:37.311Z,31.30
2022-08-01T17:25:05.630Z,31.20
2022-08-01T17:27:33.630Z,31.10
2022-08-01T17:30:01.673Z,31.10
2022-08-01T17:32:29.649Z,30.90
2022-08-01T17:34:59.240Z,30.90
2022-08-01T17:37:27.218Z,30.80
2022-08-01T17:39:55.206Z,30.70
2022-08-01T17:42:25.265Z,30.70
2022-08-01T17:44:54.281Z,30.60
2022-08-01T17:47:49.330Z,30.40
2022-08-01T17:50:14.533Z,30.50
2022-08-01T17:52:42.606Z,30.30
2022-08-01T17:55:55.333Z,30.20
2022-08-01T17:57:58.769Z,29.90
2022-08-01T18:00:26.769Z,29.60
2022-08-01T18:02:54.741Z,29.40
2022-08-01T18:05:37.145Z,29.30
2022-08-01T18:08:05.873Z,29.10
2022-08-01T18:10:33.877Z,28.90
2022-08-01T18:13:01.985Z,28.80
2022-08-01T18:15:30.193Z,28.60
2022-08-01T18:18:01.712Z,28.50
2022-08-01T18:20:31.254Z,28.30
2022-08-01T18:22:59.265Z,28.10
2022-08-01T18:25:29.349Z,28.00
2022-08-01T18:28:22.710Z,27.80
2022-08-01T18:30:45.399Z,27.70
2022-08-01T18:33:13.438Z,27.50
2022-08-01T18:35:53.548Z,27.40
2022-08-01T18:38:24.072Z,27.30
2022-08-01T18:40:52.316Z,27.20
2022-08-01T18:43:20.418Z,27.10
2022-08-01T18:45:48.451Z,26.90
2022-08-01T18:48:16.667Z,26.90
2022-08-01T18:50:47.930Z,26.80
2022-08-01T18:53:15.869Z,26.70
2022-08-01T18:55:43.898Z,26.60
2022-08-01T18:58:11.874Z,26.50
2022-08-01T19:00:40.911Z,26.50
2022-08-01T19:03:09.810Z,26.40
2022-08-01T19:05:38.448Z,26.40
2022-08-01T19:08:08.369Z,26.30
2022-08-01T19:10:36.678Z,26.30
2022-08-01T19:13:04.980Z,26.30
2022-08-01T19:15:32.980Z,26.20
2022-08-01T19:18:01.956Z,26.20
2022-08-01T19:20:29.989Z,26.10
2022-08-01T19:22:57.963Z,26.10
2022-08-01T19:25:27.838Z,26.00
2022-08-01T19:27:57.513Z,25.90
2022-08-01T19:30:25.667Z,25.90
2022-08-01T19:32:55.081Z,25.80
2022-08-01T19:35:23.920Z,25.70
2022-08-01T19:37:54.088Z,25.70
2022-08-01T19:40:27.612Z,25.60
2022-08-01T19:42:57.917Z,25.50
2022-08-01T19:45:26.179Z,25.50
2022-08-01T19:47:56.769Z,25.50
2022-08-01T19:50:26.369Z,25.50
2022-08-01T19:52:55.477Z,25.50
2022-08-01T19:55:24.537Z,25.50
2022-08-01T20:00:43.806Z,25.50
2022-08-01T20:03:11.934Z,25.60
2022-08-01T20:05:40.107Z,25.40
2022-08-01T20:08:08.484Z,25.40
2022-08-01T20:10:38.154Z,25.30
2022-08-01T20:13:06.356Z,25.30
2022-08-01T20:15:34.386Z,25.30
2022-08-01T20:18:03.747Z,25.20
2022-08-01T20:20:32.981Z,25.20
2022-08-01T20:23:04.119Z,25.20
2022-08-01T20:25:39.823Z,25.20
2022-08-01T20:28:10.097Z,25.20
2022-08-01T20:30:38.624Z,25.00
2022-08-01T20:33:08.442Z,25.00
2022-08-01T20:35:53.260Z,24.90
2022-08-01T20:38:23.042Z,24.90
2022-08-01T20:40:52.077Z,24.80
2022-08-01T20:43:21.467Z,24.60
2022-08-01T20:45:50.411Z,24.60
2022-08-01T20:48:20.425Z,24.50
2022-08-01T20:51:06.141Z,24.50
2022-08-01T20:53:36.718Z,24.50
2022-08-01T20:56:07.528Z,24.30
2022-08-01T20:58:38.692Z,24.30
2022-08-01T21:01:09.760Z,24.30
2022-08-01T21:03:42.338Z,24.30
2022-08-01T21:06:14.365Z,24.20
2022-08-01T21:08:43.429Z,24.00
2022-08-01T21:11:14.269Z,24.00
2022-08-01T21:13:43.048Z,24.00
2022-08-01T21:16:24.259Z,24.00
2022-08-01T21:21:50.019Z,23.70
2022-08-01T21:24:18.943Z,23.60
2022-08-01T21:26:47.069Z,23.50
2022-08-01T21:29:15.389Z,23.30
2022-08-01T21:31:43.429Z,23.30
2022-08-01T21:34:13.451Z,23.20
2022-08-01T21:36:45.189Z,23.10
2022-08-01T21:39:13.692Z,23.00
2022-08-01T21:42:04.766Z,22.80
2022-08-01T21:44:32.226Z,22.90
2022-08-01T21:47:00.729Z,22.70
2022-08-01T21:49:30.343Z,22.60
2022-08-01T21:52:00.982Z,22.40
2022-08-01T21:54:30.185Z,22.20
2022-08-01T21:57:02.778Z,22.00
2022-08-01T21:59:37.089Z,21.80
2022-08-01T22:02:10.252Z,21.80
2022-08-01T22:04:42.698Z,21.70
2022-08-01T22:07:11.730Z,21.50
2022-08-01T22:09:41.006Z,21.50
2022-08-01T22:12:11.584Z,21.30
2022-08-01T22:14:43.366Z,21.00
2022-08-01T22:17:12.034Z,20.80
2022-08-01T22:19:44.840Z,20.60
2022-08-01T22:22:50.389Z,20.40
2022-08-01T22:25:02.411Z,20.30
2022-08-01T22:28:06.298Z,20.20
2022-08-01T22:30:18.728Z,20.00
2022-08-01T22:33:07.343Z,19.80
2022-08-01T22:35:39.827Z,19.50
2022-08-01T22:38:09.848Z,19.20
2022-08-01T22:40:40.713Z,19.00
2022-08-01T22:43:12.675Z,18.90
2022-08-01T22:45:43.698Z,18.80
2022-08-01T22:48:15.127Z,18.80
2022-08-01T22:50:46.664Z,18.80
2022-08-01T22:53:18.574Z,18.70
2022-08-01T22:55:58.488Z,18.70
2022-08-01T22:58:30.596Z,18.50
2022-08-01T23:01:02.346Z,18.60
2022-08-01T23:03:30.914Z,18.60
2022-08-01T23:06:04.029Z,18.30
2022-08-01T23:08:32.888Z,18.60
2022-08-01T23:11:01.234Z,18.70
2022-08-01T23:13:29.418Z,18.70
2022-08-01T23:15:58.108Z,18.80
2022-08-01T23:18:26.507Z,18.80
2022-08-01T23:20:58.010Z,18.70
2022-08-01T23:23:31.129Z,18.90
2022-08-01T23:26:00.217Z,19.00
2022-08-01T23:28:28.795Z,19.10
2022-08-01T23:30:57.178Z,19.10
2022-08-01T23:33:25.166Z,19.20
2022-08-01T23:35:53.208Z,19.20
2022-08-01T23:38:21.242Z,19.30
2022-08-01T23:40:51.094Z,19.30
2022-08-01T23:43:19.241Z,19.20
2022-08-01T23:46:04.611Z,19.00
2022-08-01T23:48:34.187Z,18.90
2022-08-01T23:51:02.445Z,18.80
2022-08-01T23:53:31.234Z,18.70
2022-08-01T23:56:02.713Z,18.60
2022-08-01T23:58:31.206Z,18.70
